createdAt,value
2018-09-10T00:01:58.807Z,2.73
2018-09-10T00:04:27.395Z,2.70
2018-09-10T00:06:56.043Z,3.00
2018-09-10T00:09:25.175Z,3.10
2018-09-10T00:11:53.692Z,2.97
2018-09-10T00:14:22.208Z,3.33
2018-09-10T00:16:50.781Z,2.90
2018-09-10T00:19:19.985Z,3.40
2018-09-10T00:21:48.483Z,2.90
2018-09-10T00:24:17.128Z,3.30
2018-09-10T00:26:46.087Z,3.30
2018-09-10T00:29:14.630Z,3.67
2018-09-10T00:31:43.206Z,3.20
2018-09-10T00:34:11.711Z,3.03
2018-09-10T00:36:41.041Z,3.20
2018-09-10T00:39:11.816Z,3.77
2018-09-10T00:41:40.616Z,2.90
2018-09-10T00:44:09.250Z,3.33
2018-09-10T00:46:38.101Z,2.80
2018-09-10T00:49:06.816Z,3.20
2018-09-10T00:51:35.390Z,3.60
2018-09-10T00:54:04.065Z,3.00
2018-09-10T00:56:33.164Z,3.27
2018-09-10T00:59:01.748Z,2.63
2018-09-10T01:01:30.287Z,3.40
2018-09-10T01:03:58.828Z,3.00
2018-09-10T01:06:27.367Z,3.20
2018-09-10T01:08:55.884Z,3.20
2018-09-10T01:11:25.054Z,2.93
2018-09-10T01:13:53.653Z,3.07
2018-09-10T01:16:22.355Z,3.40
2018-09-10T01:18:50.975Z,3.40
2018-09-10T01:21:20.224Z,3.37
2018-09-10T01:23:48.760Z,3.00
2018-09-10T01:26:17.408Z,3.30
2018-09-10T01:28:45.999Z,3.00
2018-09-10T01:31:14.761Z,3.57
2018-09-10T01:33:49.448Z,3.33
2018-09-10T01:36:18.053Z,3.50
2018-09-10T01:38:47.180Z,3.20
2018-09-10T01:41:15.813Z,3.53
2018-09-10T01:43:45.073Z,3.30
2018-09-10T01:46:14.249Z,2.90
2018-09-10T01:48:42.925Z,3.00
2018-09-10T01:51:11.742Z,2.90
2018-09-10T01:53:40.907Z,3.30
2018-09-10T01:56:09.915Z,3.27
2018-09-10T01:58:38.488Z,3.20
2018-09-10T02:01:07.072Z,3.53
2018-09-10T02:03:35.611Z,3.30
2018-09-10T02:06:04.117Z,3.60
2018-09-10T02:08:33.421Z,2.90
2018-09-10T02:11:08.716Z,3.00
2018-09-10T02:13:37.955Z,3.37
2018-09-10T02:16:11.052Z,3.33
2018-09-10T02:18:40.226Z,3.50
2018-09-10T02:21:08.997Z,3.37
2018-09-10T02:23:37.547Z,3.10
2018-09-10T02:26:06.680Z,2.90
2018-09-10T02:28:36.067Z,3.30
2018-09-10T02:31:05.233Z,3.17
2018-09-10T02:33:33.716Z,3.10
2018-09-10T02:36:02.323Z,3.30
2018-09-10T02:38:31.549Z,2.70
2018-09-10T02:41:00.231Z,3.50
2018-09-10T02:43:28.736Z,3.47
2018-09-10T02:45:57.317Z,3.07
2018-09-10T02:48:25.793Z,3.40
2018-09-10T02:50:55.120Z,3.07
2018-09-10T02:53:24.331Z,3.27
2018-09-10T02:55:53.489Z,2.97
2018-09-10T02:58:22.469Z,4.00
2018-09-10T03:00:51.276Z,3.07
2018-09-10T03:03:20.366Z,3.20
2018-09-10T03:05:49.436Z,3.03
2018-09-10T03:08:18.046Z,3.20
2018-09-10T03:10:46.663Z,3.00
2018-09-10T03:13:15.559Z,3.40
2018-09-10T03:15:44.226Z,3.27
2018-09-10T03:18:13.712Z,3.20
2018-09-10T03:20:43.020Z,3.13
2018-09-10T03:23:12.310Z,3.30
2018-09-10T03:25:41.031Z,3.20
2018-09-10T03:28:09.553Z,3.60
2018-09-10T03:30:38.822Z,3.50
2018-09-10T03:33:08.067Z,3.77
2018-09-10T03:35:36.556Z,2.83
2018-09-10T03:38:05.141Z,3.27
2018-09-10T03:40:33.601Z,3.40
2018-09-10T03:43:02.995Z,2.90
2018-09-10T03:45:31.455Z,3.03
2018-09-10T03:48:00.009Z,3.37
2018-09-10T03:50:28.601Z,3.07
2018-09-10T03:52:57.620Z,3.27
2018-09-10T03:55:26.186Z,3.30
2018-09-10T03:57:55.424Z,3.00
2018-09-10T04:00:24.009Z,3.43
2018-09-10T04:02:52.787Z,3.63
2018-09-10T04:05:21.958Z,3.10
2018-09-10T04:07:51.322Z,3.20
2018-09-10T04:10:19.871Z,3.20
2018-09-10T04:12:48.610Z,3.20
2018-09-10T04:15:17.382Z,3.80
2018-09-10T04:17:46.205Z,3.00
2018-09-10T04:20:15.496Z,3.30
2018-09-10T04:22:44.175Z,2.97
2018-09-10T04:25:13.889Z,3.40
2018-09-10T04:27:42.998Z,3.50
2018-09-10T04:30:14.499Z,3.50
2018-09-10T04:32:43.671Z,3.47
2018-09-10T04:35:12.796Z,3.10
2018-09-10T04:37:41.903Z,3.30
2018-09-10T04:40:10.855Z,3.30
2018-09-10T04:42:40.302Z,3.03
2018-09-10T04:45:08.988Z,3.40
2018-09-10T04:47:37.686Z,3.10
2018-09-10T04:50:06.738Z,3.20
2018-09-10T04:52:35.290Z,3.33
2018-09-10T04:55:04.123Z,3.33
2018-09-10T04:57:33.309Z,3.30
2018-09-10T05:00:01.954Z,3.10
2018-09-10T05:02:31.265Z,3.03
2018-09-10T05:05:05.852Z,2.97
2018-09-10T05:07:35.572Z,2.90
2018-09-10T05:10:04.440Z,3.17
2018-09-10T05:12:33.891Z,3.40
2018-09-10T05:15:02.595Z,3.43
2018-09-10T05:17:31.148Z,3.53
2018-09-10T05:19:59.690Z,3.47
2018-09-10T05:22:28.160Z,3.43
2018-09-10T05:24:57.063Z,3.03
2018-09-10T05:27:26.410Z,3.30
2018-09-10T05:29:54.939Z,2.90
2018-09-10T05:32:23.799Z,3.13
2018-09-10T05:34:53.109Z,3.40
2018-09-10T05:37:21.880Z,3.37
2018-09-10T05:39:50.583Z,3.10
2018-09-10T05:42:19.678Z,3.63
2018-09-10T05:44:48.303Z,3.10
2018-09-10T05:47:17.215Z,3.23
2018-09-10T05:49:46.667Z,3.67
2018-09-10T05:52:15.852Z,3.10
2018-09-10T05:54:45.029Z,3.00
2018-09-10T05:57:14.216Z,3.40
2018-09-10T05:59:43.019Z,3.53
2018-09-10T06:02:11.827Z,3.30
2018-09-10T06:04:40.496Z,3.37
2018-09-10T06:07:09.149Z,3.63
2018-09-10T06:09:37.767Z,3.50
2018-09-10T06:12:06.356Z,3.47
2018-09-10T06:14:35.227Z,3.57
2018-09-10T06:17:03.977Z,3.87
2018-09-10T06:19:32.492Z,3.47
2018-09-10T06:22:01.079Z,3.80
2018-09-10T06:24:29.571Z,3.67
2018-09-10T06:26:58.692Z,3.80
2018-09-10T06:29:27.253Z,4.33
2018-09-10T06:31:56.532Z,4.53
2018-09-10T06:34:25.267Z,3.73
2018-09-10T06:36:53.910Z,4.57
2018-09-10T06:39:22.529Z,3.70
2018-09-10T06:41:51.474Z,4.10
2018-09-10T06:44:20.675Z,3.87
2018-09-10T06:46:49.291Z,3.90
2018-09-10T06:49:17.993Z,3.60
2018-09-10T06:51:46.546Z,4.10
2018-09-10T06:54:15.216Z,3.80
2018-09-10T06:56:43.697Z,4.13
2018-09-10T06:59:12.278Z,3.50
2018-09-10T07:01:41.272Z,3.57
2018-09-10T07:04:10.446Z,3.20
2018-09-10T07:06:39.710Z,3.37
2018-09-10T07:09:09.586Z,3.33
2018-09-10T07:11:39.038Z,3.93
2018-09-10T07:14:08.461Z,3.23
2018-09-10T07:16:37.496Z,3.17
2018-09-10T07:19:06.679Z,3.47
2018-09-10T07:21:36.041Z,3.30
2018-09-10T07:24:05.151Z,2.80
2018-09-10T07:26:34.639Z,3.30
2018-09-10T07:29:03.641Z,2.80
2018-09-10T07:31:32.230Z,3.17
2018-09-10T07:34:01.076Z,2.93
2018-09-10T07:36:30.520Z,2.80
2018-09-10T07:38:59.428Z,3.13
2018-09-10T07:41:28.110Z,3.07
2018-09-10T07:43:57.009Z,3.23
2018-09-10T07:46:26.444Z,2.90
2018-09-10T07:48:55.492Z,2.90
2018-09-10T07:51:24.448Z,2.53
2018-09-10T07:53:53.275Z,2.77
2018-09-10T07:56:22.089Z,2.83
2018-09-10T07:58:51.369Z,2.73
2018-09-10T08:01:20.529Z,2.80
2018-09-10T08:03:49.338Z,2.80
2018-09-10T08:06:18.114Z,2.60
2018-09-10T08:08:47.311Z,2.60
2018-09-10T08:11:16.566Z,2.70
2018-09-10T08:13:46.071Z,3.13
2018-09-10T08:16:14.984Z,2.40
2018-09-10T08:18:44.627Z,2.30
2018-09-10T08:21:13.984Z,2.60
2018-09-10T08:23:42.667Z,2.50
2018-09-10T08:26:11.765Z,2.30
2018-09-10T08:28:41.193Z,2.53
2018-09-10T08:31:10.288Z,2.60
2018-09-10T08:33:39.542Z,2.40
2018-09-10T08:36:08.395Z,2.40
2018-09-10T08:38:37.545Z,2.40
2018-09-10T08:41:06.272Z,2.30
2018-09-10T08:43:34.968Z,2.20
2018-09-10T08:46:04.417Z,2.30
2018-09-10T08:48:33.153Z,2.50
2018-09-10T08:51:02.042Z,2.63
2018-09-10T08:53:30.600Z,2.53
2018-09-10T08:55:59.429Z,2.53
2018-09-10T08:58:27.932Z,2.30
2018-09-10T09:00:57.067Z,2.30
2018-09-10T09:03:25.571Z,2.73
2018-09-10T09:05:54.507Z,2.30
2018-09-10T09:08:23.850Z,2.40
2018-09-10T09:10:53.121Z,2.40
2018-09-10T09:13:22.391Z,2.27
2018-09-10T09:15:51.258Z,2.17
2018-09-10T09:18:19.872Z,2.17
2018-09-10T09:20:48.777Z,2.00
2018-09-10T09:23:17.584Z,1.93
2018-09-10T09:25:45.938Z,2.50
2018-09-10T09:28:14.463Z,2.20
2018-09-10T09:30:43.148Z,2.10
2018-09-10T09:33:11.887Z,2.10
2018-09-10T09:35:47.168Z,2.47
2018-09-10T09:38:20.784Z,2.17
2018-09-10T09:40:54.592Z,2.00
2018-09-10T09:43:28.683Z,2.00
2018-09-10T09:46:02.445Z,1.70
2018-09-10T09:48:30.944Z,1.93
2018-09-10T09:51:00.078Z,2.00
2018-09-10T09:53:28.568Z,1.80
2018-09-10T09:55:57.119Z,1.30
2018-09-10T09:58:25.725Z,1.40
2018-09-10T10:00:57.214Z,1.20
2018-09-10T10:03:31.050Z,1.10
2018-09-10T10:06:00.259Z,0.90
2018-09-10T10:08:28.819Z,1.10
2018-09-10T10:10:57.339Z,1.07
2018-09-10T10:13:25.944Z,0.80
2018-09-10T10:15:55.134Z,1.20
2018-09-10T10:18:24.357Z,0.93
2018-09-10T10:20:52.811Z,1.00
2018-09-10T10:23:21.509Z,1.17
2018-09-10T10:25:50.104Z,1.00
2018-09-10T10:28:18.736Z,1.20
2018-09-10T10:30:47.362Z,1.20
2018-09-10T10:33:15.943Z,1.20
2018-09-10T10:35:45.073Z,1.40
2018-09-10T10:38:13.738Z,1.30
2018-09-10T10:40:42.468Z,1.40
2018-09-10T10:43:11.150Z,1.23
2018-09-10T10:45:39.995Z,1.50
2018-09-10T10:48:08.548Z,1.60
2018-09-10T10:50:37.148Z,1.37
2018-09-10T10:53:05.816Z,1.77
2018-09-10T10:55:34.513Z,1.43
2018-09-10T10:58:04.132Z,1.30
2018-09-10T11:00:32.648Z,1.50
2018-09-10T11:03:01.292Z,1.67
2018-09-10T11:05:29.856Z,1.80
2018-09-10T11:07:58.391Z,1.97
2018-09-10T11:10:27.030Z,1.60
2018-09-10T11:12:56.204Z,1.57
2018-09-10T11:15:24.865Z,1.90
2018-09-10T11:17:53.613Z,1.37
2018-09-10T11:20:22.257Z,1.80
2018-09-10T11:22:50.906Z,2.00
2018-09-10T11:25:19.728Z,1.70
2018-09-10T11:27:48.360Z,1.63
2018-09-10T11:30:16.952Z,1.60
2018-09-10T11:32:45.673Z,1.50
2018-09-10T11:35:14.304Z,1.90
2018-09-10T11:37:43.403Z,1.80
2018-09-10T11:40:12.390Z,1.73
2018-09-10T11:42:41.396Z,1.60
2018-09-10T11:45:10.710Z,1.90
2018-09-10T11:47:40.205Z,1.60
2018-09-10T11:50:09.030Z,1.77
2018-09-10T11:52:38.312Z,1.93
2018-09-10T11:55:07.453Z,1.87
2018-09-10T11:57:36.859Z,1.67
2018-09-10T12:00:05.538Z,1.90
2018-09-10T12:02:34.157Z,1.70
2018-09-10T12:05:03.115Z,1.77
2018-09-10T12:07:31.898Z,1.70
2018-09-10T12:10:01.021Z,1.53
2018-09-10T12:12:30.024Z,1.50
2018-09-10T12:14:58.979Z,1.90
2018-09-10T12:17:27.830Z,1.60
2018-09-10T12:19:56.498Z,1.83
2018-09-10T12:22:25.216Z,1.83
2018-09-10T12:24:53.827Z,1.80
2018-09-10T12:27:22.475Z,1.73
2018-09-10T12:29:51.087Z,2.00
2018-09-10T12:32:19.714Z,2.03
2018-09-10T12:34:48.187Z,1.60
2018-09-10T12:37:16.754Z,1.70
2018-09-10T12:39:46.011Z,2.03
2018-09-10T12:42:16.161Z,1.90
2018-09-10T12:44:44.985Z,2.00
2018-09-10T12:47:15.141Z,1.90
2018-09-10T12:49:44.024Z,1.90
2018-09-10T12:52:12.535Z,1.97
2018-09-10T12:54:41.481Z,1.70
2018-09-10T12:57:10.327Z,2.00
2018-09-10T12:59:39.139Z,1.77
2018-09-10T13:02:08.020Z,1.63
2018-09-10T13:04:36.916Z,1.70
2018-09-10T13:07:06.203Z,1.63
2018-09-10T13:09:35.386Z,1.77
2018-09-10T13:12:04.644Z,1.30
2018-09-10T13:14:33.479Z,1.70
2018-09-10T13:17:02.195Z,1.80
2018-09-10T13:19:31.060Z,1.50
2018-09-10T13:22:00.614Z,1.53
2018-09-10T13:24:29.740Z,1.63
2018-09-10T13:26:58.493Z,1.73
2018-09-10T13:29:28.132Z,1.80
2018-09-10T13:31:56.724Z,1.70
2018-09-10T13:34:25.300Z,1.50
2018-09-10T13:36:53.915Z,1.90
2018-09-10T13:39:22.728Z,1.80
2018-09-10T13:41:51.462Z,1.70
2018-09-10T13:44:20.285Z,1.87
2018-09-10T13:46:49.062Z,1.70
2018-09-10T13:49:17.782Z,1.80
2018-09-10T13:51:46.382Z,1.90
2018-09-10T13:54:15.364Z,2.00
2018-09-10T13:56:44.719Z,1.97
2018-09-10T13:59:13.336Z,2.00
2018-09-10T14:01:42.155Z,1.60
2018-09-10T14:04:10.776Z,1.50
2018-09-10T14:06:39.468Z,1.93
2018-09-10T14:09:08.573Z,1.87
2018-09-10T14:11:38.439Z,2.10
2018-09-10T14:14:07.907Z,1.90
2018-09-10T14:16:36.658Z,1.77
2018-09-10T14:19:05.889Z,1.90
2018-09-10T14:21:34.817Z,1.90
2018-09-10T14:24:03.654Z,1.87
2018-09-10T14:26:32.589Z,2.00
2018-09-10T14:29:01.670Z,1.87
2018-09-10T14:31:31.613Z,2.03
2018-09-10T14:34:00.200Z,1.90
2018-09-10T14:36:29.438Z,1.80
2018-09-10T14:38:58.216Z,1.60
2018-09-10T14:41:27.764Z,1.80
2018-09-10T14:43:56.404Z,1.70
2018-09-10T14:46:25.393Z,1.50
2018-09-10T14:48:54.493Z,1.77
2018-09-10T14:51:23.108Z,1.80
2018-09-10T14:53:52.453Z,1.87
2018-09-10T14:56:21.204Z,1.80
2018-09-10T14:58:50.318Z,2.00
2018-09-10T15:01:18.972Z,1.90
2018-09-10T15:03:47.889Z,2.03
2018-09-10T15:06:16.800Z,1.77
2018-09-10T15:08:45.375Z,1.73
2018-09-10T15:11:14.128Z,2.00
2018-09-10T15:13:42.783Z,2.07
2018-09-10T15:16:11.390Z,1.90
2018-09-10T15:18:40.242Z,1.93
2018-09-10T15:21:09.451Z,1.90
2018-09-10T15:23:38.606Z,2.00
2018-09-10T15:26:08.217Z,1.90
2018-09-10T15:28:37.236Z,1.67
2018-09-10T15:31:06.488Z,1.90
2018-09-10T15:33:36.008Z,1.90
2018-09-10T15:36:05.281Z,1.83
2018-09-10T15:38:34.048Z,2.10
2018-09-10T15:41:04.340Z,2.10
2018-09-10T15:43:33.373Z,1.80
2018-09-10T15:46:02.875Z,2.03
2018-09-10T15:48:32.210Z,1.72
2018-09-10T15:51:01.290Z,1.70
2018-09-10T15:53:30.461Z,1.40
2018-09-10T15:55:59.263Z,1.85
2018-09-10T15:58:29.090Z,1.72
2018-09-10T16:00:58.075Z,1.60
2018-09-10T16:03:27.666Z,1.50
2018-09-10T16:05:56.501Z,1.50
2018-09-10T16:08:25.486Z,1.65
2018-09-10T16:10:54.243Z,1.80
2018-09-10T16:13:23.289Z,1.50
2018-09-10T16:15:52.487Z,1.55
2018-09-10T16:18:23.731Z,1.47
2018-09-10T16:20:53.817Z,1.50
2018-09-10T16:23:23.746Z,1.60
2018-09-10T16:25:53.346Z,1.60
2018-09-10T16:28:22.559Z,1.83
2018-09-10T16:30:51.685Z,1.80
2018-09-10T16:33:21.089Z,1.73
2018-09-10T16:35:53.191Z,1.90
2018-09-10T16:38:22.597Z,1.93
2018-09-10T16:40:51.985Z,1.70
2018-09-10T16:43:21.084Z,1.77
2018-09-10T16:45:50.128Z,2.30
2018-09-10T16:48:19.392Z,1.80
2018-09-10T16:50:48.379Z,2.20
2018-09-10T16:53:17.662Z,2.00
2018-09-10T16:55:46.766Z,2.30
2018-09-10T16:58:16.881Z,1.87
2018-09-10T17:00:45.897Z,1.93
2018-09-10T17:03:16.077Z,2.30
2018-09-10T17:05:46.026Z,1.93
2018-09-10T17:08:15.301Z,1.97
2018-09-10T17:10:45.092Z,1.93
2018-09-10T17:13:15.313Z,1.70
2018-09-10T17:15:45.883Z,2.00
2018-09-10T17:18:15.947Z,1.90
2018-09-10T17:20:45.926Z,2.00
2018-09-10T17:23:15.017Z,1.93
2018-09-10T17:25:45.383Z,2.00
2018-09-10T17:28:14.732Z,2.20
2018-09-10T17:30:43.792Z,2.20
2018-09-10T17:33:13.090Z,2.43
2018-09-10T17:35:41.961Z,2.17
2018-09-10T17:38:12.109Z,1.80
2018-09-10T17:40:42.016Z,1.70
2018-09-10T17:43:11.800Z,2.00
2018-09-10T17:45:40.660Z,1.90
2018-09-10T17:48:10.474Z,1.83
2018-09-10T17:50:39.446Z,2.27
2018-09-10T17:53:08.944Z,2.40
2018-09-10T17:55:38.002Z,2.30
2018-09-10T17:58:07.020Z,2.10
2018-09-10T18:00:40.309Z,2.30
2018-09-10T18:03:12.242Z,2.10
2018-09-10T18:05:41.823Z,2.40
2018-09-10T18:08:11.260Z,2.20
2018-09-10T18:10:40.115Z,2.10
2018-09-10T18:13:09.447Z,2.47
2018-09-10T18:15:38.427Z,2.37
2018-09-10T18:18:07.833Z,1.93
2018-09-10T18:20:37.124Z,2.30
2018-09-10T18:23:06.033Z,2.13
2018-09-10T18:25:36.040Z,2.40
2018-09-10T18:28:05.486Z,2.07
2018-09-10T18:30:35.780Z,2.50
2018-09-10T18:33:04.918Z,2.60
2018-09-10T18:35:33.913Z,2.60
2018-09-10T18:38:04.831Z,2.53
2018-09-10T18:40:34.656Z,2.37
2018-09-10T18:43:03.785Z,2.87
2018-09-10T18:45:32.481Z,2.70
2018-09-10T18:48:01.331Z,2.57
2018-09-10T18:50:30.550Z,2.47
2018-09-10T18:52:59.773Z,2.70
2018-09-10T18:55:28.919Z,2.43
2018-09-10T18:57:57.831Z,2.67
2018-09-10T19:00:27.643Z,2.30
2018-09-10T19:02:56.454Z,3.10
2018-09-10T19:05:26.246Z,3.00
2018-09-10T19:07:55.147Z,2.87
2018-09-10T19:10:24.382Z,2.87
2018-09-10T19:12:53.539Z,2.90
2018-09-10T19:15:22.498Z,3.07
2018-09-10T19:17:52.161Z,2.80
2018-09-10T19:20:21.579Z,2.60
2018-09-10T19:22:50.534Z,2.80
2018-09-10T19:25:20.229Z,2.90
2018-09-10T19:27:49.753Z,3.03
2018-09-10T19:30:19.390Z,3.17
2018-09-10T19:32:48.277Z,2.67
2018-09-10T19:35:17.418Z,3.00
2018-09-10T19:37:46.524Z,3.40
2018-09-10T19:40:15.900Z,2.93
2018-09-10T19:42:44.729Z,2.90
2018-09-10T19:45:14.167Z,2.63
2018-09-10T19:47:43.681Z,3.07
2018-09-10T19:50:12.456Z,3.03
2018-09-10T19:52:41.624Z,2.83
2018-09-10T19:55:11.346Z,3.10
2018-09-10T19:57:40.114Z,3.20
2018-09-10T20:00:09.884Z,2.90
2018-09-10T20:02:39.675Z,3.20
2018-09-10T20:05:10.100Z,2.90
2018-09-10T20:07:39.361Z,2.93
2018-09-10T20:10:08.770Z,3.03
2018-09-10T20:12:37.913Z,3.13
2018-09-10T20:15:06.672Z,3.07
2018-09-10T20:17:35.634Z,3.33
2018-09-10T20:20:05.792Z,3.60
2018-09-10T20:22:34.673Z,3.30
2018-09-10T20:25:05.362Z,3.00
2018-09-10T20:27:34.888Z,3.27
2018-09-10T20:30:05.129Z,2.87
2018-09-10T20:32:34.056Z,3.07
2018-09-10T20:35:03.805Z,3.07
2018-09-10T20:37:32.608Z,2.87
2018-09-10T20:40:01.475Z,3.70
2018-09-10T20:42:30.422Z,3.53
2018-09-10T20:45:00.089Z,2.93
2018-09-10T20:47:29.230Z,3.40
2018-09-10T20:49:58.043Z,3.30
2018-09-10T20:52:26.669Z,3.33
2018-09-10T20:54:55.485Z,3.30
2018-09-10T20:57:24.494Z,3.07
2018-09-10T20:59:53.676Z,3.20
2018-09-10T21:02:23.149Z,3.50
2018-09-10T21:04:52.470Z,3.17
2018-09-10T21:07:21.975Z,3.10
2018-09-10T21:09:51.009Z,3.40
2018-09-10T21:12:20.190Z,3.47
2018-09-10T21:14:49.550Z,3.20
2018-09-10T21:17:18.598Z,3.53
2018-09-10T21:19:47.924Z,3.30
2018-09-10T21:22:17.096Z,3.20
2018-09-10T21:24:45.723Z,3.07
2018-09-10T21:27:14.509Z,3.63
2018-09-10T21:29:43.495Z,3.50
2018-09-10T21:32:12.613Z,3.30
2018-09-10T21:34:41.512Z,3.50
2018-09-10T21:37:10.327Z,3.13
2018-09-10T21:39:38.978Z,3.57
2018-09-10T21:42:08.749Z,3.57
2018-09-10T21:44:38.374Z,4.00
2018-09-10T21:47:07.206Z,3.33
2018-09-10T21:49:36.658Z,3.80
2018-09-10T21:52:05.660Z,3.93
2018-09-10T21:54:34.440Z,3.43
2018-09-10T21:57:03.188Z,3.53
2018-09-10T21:59:32.462Z,3.83
2018-09-10T22:02:01.283Z,4.00
2018-09-10T22:04:30.449Z,3.70
2018-09-10T22:07:00.058Z,3.57
2018-09-10T22:09:28.640Z,3.73
2018-09-10T22:12:03.052Z,4.10
2018-09-10T22:14:32.544Z,3.90
2018-09-10T22:17:10.776Z,4.00
2018-09-10T22:19:39.877Z,3.80
2018-09-10T22:22:08.468Z,3.73
2018-09-10T22:24:37.334Z,3.57
2018-09-10T22:27:06.614Z,3.80
2018-09-10T22:29:35.506Z,4.20
2018-09-10T22:32:04.066Z,3.90
2018-09-10T22:34:32.979Z,3.93
2018-09-10T22:37:01.881Z,3.90
2018-09-10T22:39:30.665Z,3.87
2018-09-10T22:41:59.571Z,4.03
2018-09-10T22:44:29.072Z,4.30
2018-09-10T22:46:58.404Z,4.00
2018-09-10T22:49:27.816Z,4.20
2018-09-10T22:51:56.773Z,3.90
2018-09-10T22:54:26.171Z,4.00
2018-09-10T22:56:54.848Z,4.13
2018-09-10T22:59:23.735Z,4.17
2018-09-10T23:01:52.247Z,4.50
2018-09-10T23:04:20.857Z,4.40
2018-09-10T23:06:49.448Z,4.70
2018-09-10T23:09:18.177Z,4.83
2018-09-10T23:11:47.802Z,4.47
2018-09-10T23:14:17.200Z,4.07
2018-09-10T23:16:46.244Z,4.00
2018-09-10T23:19:15.292Z,4.00
2018-09-10T23:21:44.678Z,4.37
2018-09-10T23:24:13.782Z,4.10
2018-09-10T23:26:42.418Z,4.00
2018-09-10T23:29:10.984Z,3.83
2018-09-10T23:31:41.153Z,4.00
2018-09-10T23:34:09.923Z,3.93
2018-09-10T23:36:38.566Z,4.00
2018-09-10T23:39:09.016Z,4.30
2018-09-10T23:41:39.661Z,4.10
2018-09-10T23:44:08.324Z,4.33
2018-09-10T23:46:37.096Z,4.07
2018-09-10T23:49:05.961Z,4.20
2018-09-10T23:51:35.500Z,4.67
2018-09-10T23:54:04.274Z,3.97
2018-09-10T23:56:33.691Z,3.73
2018-09-10T23:59:02.860Z,4.33
